»·PEaware :: AAL9984 KABQ-KROW

AAL9984 :: KABQ-KROW

FLIGHT INFORMATION

Flight Status: Arrived
Operator:
American Airlines
More flights by this operator :: More flights under this callsign
Pilot: Drew L. (13237)
Aircraft: MCDONNELL-DOUGLAS MD-83
(MD83)
More flights by this aircraft type
Origin: KABQ Albuquerque Intl Sunport
United States
Destination: KROW Roswell Industrial
United States
More flights between these airports :: More routes between these airports
Route: MNZNO3 CME
File this flight plan on PilotEdge
Remarks: PBN / A1B2 DOF / 181014 REG / N883SB OPR / AAL PER / C RMK / TCAS SIMBRIEF
Altitude:
(Current/Filed)
25,000ft
Speed:
(Current/Filed)
392kts
Departed: 14-Oct-18 02:53 PM
Arrived: 14-Oct-18 03:21 PM
Distance/Time
Traveled:
147nm/0:28
Distance/Time
To Go:
Arrived

Flight Plot

Page will automatically refresh every two minutes.

Flight plan parsing failed; only flown route is shown


Map Options




Map Legend


Flown Route
Filed Route
Departure Airport
Arrival Airport
Navaid (VOR, NDB)
Fix

Horizontal Profiles

Position Reports

Time Latitude Longitude Heading Altitude Ground
Speed
14-Oct-18 14:31 35.046823 -106.615400 11 5322ft 0kts
14-Oct-18 14:32 35.046823 -106.615400 11 5322ft 0kts
14-Oct-18 14:33 35.046823 -106.615400 11 5322ft 0kts
14-Oct-18 14:34 35.046823 -106.615400 11 5322ft 0kts
14-Oct-18 14:35 35.046823 -106.615400 11 5322ft 0kts
14-Oct-18 14:36 35.046823 -106.615400 11 5322ft 0kts
14-Oct-18 14:37 35.046823 -106.615400 11 5322ft 0kts
14-Oct-18 14:38 35.046823 -106.615400 11 5322ft 0kts
14-Oct-18 14:39 35.046823 -106.615400 11 5322ft 0kts
14-Oct-18 14:40 35.046823 -106.615400 11 5321ft 0kts
14-Oct-18 14:41 35.046823 -106.615400 11 5321ft 0kts
14-Oct-18 14:42 35.046823 -106.615400 11 5321ft 0kts
14-Oct-18 14:43 35.046823 -106.615400 11 5321ft 0kts
14-Oct-18 14:44 35.046823 -106.615400 11 5321ft 0kts
14-Oct-18 14:45 35.046725 -106.615451 41 5321ft 2kts
14-Oct-18 14:46 35.046307 -106.615448 306 5321ft 2kts
14-Oct-18 14:47 35.046241 -106.615090 268 5321ft 0kts
14-Oct-18 14:48 35.046241 -106.615090 268 5321ft 0kts
14-Oct-18 14:49 35.046241 -106.615090 268 5321ft 0kts
14-Oct-18 14:50 35.046241 -106.615090 268 5321ft 0kts
14-Oct-18 14:51 35.045602 -106.616978 260 5321ft 10kts
14-Oct-18 14:52 35.045449 -106.621261 224 5321ft 0kts
14-Oct-18 14:53 35.045449 -106.621261 224 5321ft 0kts
14-Oct-18 14:54 35.045181 -106.621391 184 5321ft 5kts
14-Oct-18 14:55 35.044349 -106.592339 94 6732ft 204kts
14-Oct-18 14:56 35.013393 -106.528446 148 9923ft 264kts
14-Oct-18 14:57 34.941471 -106.507939 191 13617ft 296kts
14-Oct-18 14:58 34.856947 -106.517566 184 17432ft 327kts
14-Oct-18 14:59 34.777851 -106.462061 122 21053ft 389kts
14-Oct-18 15:00 34.737167 -106.338111 122 23839ft 411kts
14-Oct-18 15:01 34.688057 -106.204979 122 25021ft 457kts
14-Oct-18 15:02 34.633017 -106.064363 123 25021ft 473kts
14-Oct-18 15:03 34.576030 -105.917358 123 25012ft 487kts
14-Oct-18 15:04 34.518720 -105.768700 122 25063ft 487kts
14-Oct-18 15:05 34.456427 -105.626357 140 25131ft 465kts
14-Oct-18 15:06 34.353695 -105.541947 155 25139ft 447kts
14-Oct-18 15:07 34.250387 -105.458487 154 25135ft 448kts
14-Oct-18 15:08 34.146973 -105.374022 154 24522ft 450kts
14-Oct-18 15:09 34.044267 -105.290039 153 22687ft 446kts
14-Oct-18 15:10 33.943681 -105.201582 147 20836ft 442kts
14-Oct-18 15:11 33.854594 -105.115793 148 18970ft 389kts
14-Oct-18 15:12 33.771961 -105.036917 147 17174ft 379kts
14-Oct-18 15:13 33.690241 -104.958860 146 15015ft 374kts
14-Oct-18 15:14 33.610217 -104.882359 145 12610ft 362kts
14-Oct-18 15:15 33.532995 -104.808463 144 10221ft 352kts
14-Oct-18 15:16 33.462723 -104.741151 145 9659ft 304kts
14-Oct-18 15:17 33.401541 -104.677503 127 8821ft 287kts
14-Oct-18 15:18 33.370110 -104.596172 106 8258ft 247kts
14-Oct-18 15:19 33.382092 -104.523688 66 7334ft 212kts
14-Oct-18 15:20 33.382010 -104.461587 151 6362ft 215kts
14-Oct-18 15:21 33.337982 -104.471132 238 5215ft 161kts
14-Oct-18 15:22 33.313643 -104.503928 231 3780ft 149kts
14-Oct-18 15:23 33.298046 -104.522722 223 3651ft 0kts
14-Oct-18 15:24 33.298046 -104.522723 223 3651ft 0kts

Navigation Log

Ident Type
Flight plan parsing failed, navigation log unavailable